Time,TemperatureF,DewpointF,PressureIn,WindDirection,WindDirectionDegrees,WindSpeedMPH,WindSpeedGustMPH,Humidity,HourlyPrecipIn,Conditions,Clouds,dailyrainin,SoftwareType,DateUTC
2013-03-30 00:00:00,38.2,30.6,30.18,NW,304,1.0,1.0,74,0.00,,,0.00,Wunderground v.1.15,2013-03-30 04:00:00,
2013-03-30 00:02:00,38.2,30.6,30.18,NW,304,1.0,21.0,74,0.00,,,0.00,Wunderground v.1.15,2013-03-30 04:02:00,
2013-03-30 00:03:00,38.2,30.6,30.18,NW,304,1.0,21.0,74,0.00,,,0.00,Wunderground v.1.15,2013-03-30 04:03:00,
2013-03-30 00:09:00,38.0,30.8,30.18,NW,304,0.0,21.0,75,0.00,,,0.00,Wunderground v.1.15,2013-03-30 04:09:00,
2013-03-30 00:13:00,37.9,30.7,30.18,NW,304,0.0,21.0,75,0.00,,,0.00,Wunderground v.1.15,2013-03-30 04:13:00,
2013-03-30 00:19:00,37.7,30.5,30.18,NW,304,0.0,21.0,75,0.00,,,0.00,Wunderground v.1.15,2013-03-30 04:19:00,
2013-03-30 00:25:00,37.6,30.4,30.18,NW,304,1.0,21.0,75,0.00,,,0.00,Wunderground v.1.15,2013-03-30 04:25:00,
2013-03-30 00:31:00,37.5,30.3,30.18,NW,304,2.0,21.0,75,0.00,,,0.00,Wunderground v.1.15,2013-03-30 04:31:00,
2013-03-30 00:37:00,37.4,30.5,30.18,WNW,301,3.0,21.0,76,0.00,,,0.00,Wunderground v.1.15,2013-03-30 04:37:00,
2013-03-30 00:43:00,37.5,30.6,30.18,WNW,298,3.0,21.0,76,0.00,,,0.00,Wunderground v.1.15,2013-03-30 04:43:00,
2013-03-30 00:49:00,37.5,30.6,30.18,WNW,296,4.0,21.0,76,0.00,,,0.00,Wunderground v.1.15,2013-03-30 04:49:00,
2013-03-30 00:54:00,37.5,30.6,30.18,WNW,298,4.0,21.0,76,0.00,,,0.00,Wunderground v.1.15,2013-03-30 04:54:00,
2013-03-30 00:59:00,37.5,30.6,30.18,WNW,299,3.0,21.0,76,0.00,,,0.00,Wunderground v.1.15,2013-03-30 04:59:00,
2013-03-30 01:05:00,37.6,30.4,30.18,WNW,299,3.0,10.0,75,0.00,,,0.00,Wunderground v.1.15,2013-03-30 05:05:00,
2013-03-30 01:10:00,37.7,30.5,30.18,WNW,298,3.0,10.0,75,0.00,,,0.00,Wunderground v.1.15,2013-03-30 05:10:00,
2013-03-30 01:15:00,37.8,30.6,30.18,WNW,299,2.0,10.0,75,0.00,,,0.00,Wunderground v.1.15,2013-03-30 05:15:00,
2013-03-30 01:21:00,37.9,30.7,30.18,WNW,300,1.0,5.0,75,0.00,,,0.00,Wunderground v.1.15,2013-03-30 05:21:00,
2013-03-30 01:27:00,37.9,30.7,30.18,WNW,300,1.0,10.0,75,0.00,,,0.00,Wunderground v.1.15,2013-03-30 05:27:00,
2013-03-30 01:32:00,37.8,30.6,30.18,NW,315,2.0,10.0,75,0.00,,,0.00,Wunderground v.1.15,2013-03-30 05:32:00,
2013-03-30 01:38:00,37.8,30.6,30.18,NW,314,1.0,10.0,75,0.00,,,0.00,Wunderground v.1.15,2013-03-30 05:38:00,
2013-03-30 01:44:00,37.8,30.9,30.18,NW,314,2.0,10.0,76,0.00,,,0.00,Wunderground v.1.15,2013-03-30 05:44:00,
2013-03-30 01:49:00,37.8,30.6,30.18,NW,314,1.0,10.0,75,0.00,,,0.00,Wunderground v.1.15,2013-03-30 05:49:00,
2013-03-30 01:55:00,37.8,30.9,30.18,NW,325,1.0,10.0,76,0.00,,,0.00,Wunderground v.1.15,2013-03-30 05:55:00,
2013-03-30 02:01:00,37.8,30.9,30.18,NNW,327,2.0,5.0,76,0.00,,,0.00,Wunderground v.1.15,2013-03-30 06:01:00,
2013-03-30 02:07:00,37.8,30.9,30.18,NW,326,2.0,10.0,76,0.00,,,0.00,Wunderground v.1.15,2013-03-30 06:07:00,
2013-03-30 02:12:00,37.7,31.1,30.18,NNW,335,3.0,10.0,77,0.00,,,0.00,Wunderground v.1.15,2013-03-30 06:12:00,
2013-03-30 02:18:00,37.7,31.1,30.18,NW,312,3.0,10.0,77,0.00,,,0.00,Wunderground v.1.15,2013-03-30 06:18:00,
2013-03-30 02:23:00,37.6,31.0,30.18,NW,312,1.0,10.0,77,0.00,,,0.00,Wunderground v.1.15,2013-03-30 06:23:00,
2013-03-30 02:28:00,37.6,31.4,30.18,NW,312,1.0,10.0,78,0.00,,,0.00,Wunderground v.1.15,2013-03-30 06:28:00,
2013-03-30 02:34:00,37.5,31.3,30.18,NW,312,1.0,10.0,78,0.00,,,0.00,Wunderground v.1.15,2013-03-30 06:34:00,
2013-03-30 02:40:00,37.5,31.3,30.18,NW,312,1.0,1.0,78,0.00,,,0.00,Wunderground v.1.15,2013-03-30 06:40:00,
2013-03-30 02:45:00,37.4,31.2,30.18,NW,312,1.0,10.0,78,0.00,,,0.00,Wunderground v.1.15,2013-03-30 06:45:00,
2013-03-30 02:52:00,37.4,31.2,30.18,NW,317,2.0,10.0,78,0.00,,,0.00,Wunderground v.1.15,2013-03-30 06:52:00,
2013-03-30 02:58:00,37.2,31.0,30.18,NW,321,2.0,10.0,78,0.00,,,0.00,Wunderground v.1.15,2013-03-30 06:58:00,
2013-03-30 03:04:00,37.1,30.9,30.18,NW,321,1.0,10.0,78,0.00,,,0.00,Wunderground v.1.15,2013-03-30 07:04:00,
2013-03-30 03:09:00,36.9,30.7,30.18,NNW,327,1.0,10.0,78,0.00,,,0.00,Wunderground v.1.15,2013-03-30 07:09:00,
2013-03-30 03:15:00,36.8,30.6,30.18,NNW,327,1.0,10.0,78,0.00,,,0.00,Wunderground v.1.15,2013-03-30 07:15:00,
2013-03-30 03:21:00,36.6,30.7,30.18,NW,309,1.0,10.0,79,0.00,,,0.00,Wunderground v.1.15,2013-03-30 07:21:00,
2013-03-30 03:27:00,36.5,30.6,30.17,WNW,301,1.0,10.0,79,0.00,,,0.00,Wunderground v.1.15,2013-03-30 07:27:00,
2013-03-30 03:33:00,36.4,30.5,30.17,WNW,295,2.0,10.0,79,0.00,,,0.00,Wunderground v.1.15,2013-03-30 07:33:00,
2013-03-30 03:39:00,36.4,30.5,30.17,WNW,294,3.0,10.0,79,0.00,,,0.00,Wunderground v.1.15,2013-03-30 07:39:00,
2013-03-30 03:44:00,36.3,30.4,30.17,WNW,294,2.0,10.0,79,0.00,,,0.00,Wunderground v.1.15,2013-03-30 07:44:00,
2013-03-30 03:50:00,36.2,30.3,30.17,WNW,294,2.0,2.0,79,0.00,,,0.00,Wunderground v.1.15,2013-03-30 07:50:00,
2013-03-30 03:55:00,36.1,30.2,30.17,WNW,294,2.0,10.0,79,0.00,,,0.00,Wunderground v.1.15,2013-03-30 07:55:00,
2013-03-30 04:00:00,36.0,30.1,30.17,WNW,294,2.0,2.0,79,0.00,,,0.00,Wunderground v.1.15,2013-03-30 08:00:00,
2013-03-30 04:05:00,36.0,30.4,30.17,WNW,294,2.0,10.0,80,0.00,,,0.00,Wunderground v.1.15,2013-03-30 08:05:00,
2013-03-30 04:12:00,35.9,30.3,30.17,WNW,294,1.0,10.0,80,0.00,,,0.00,Wunderground v.1.15,2013-03-30 08:12:00,
2013-03-30 04:18:00,35.7,30.1,30.17,WNW,294,1.0,10.0,80,0.00,,,0.00,Wunderground v.1.15,2013-03-30 08:18:00,
2013-03-30 04:24:00,35.6,30.0,30.17,WNW,294,1.0,10.0,80,0.00,,,0.00,Wunderground v.1.15,2013-03-30 08:24:00,
2013-03-30 04:30:00,35.4,30.1,30.17,WNW,294,1.0,1.0,81,0.00,,,0.00,Wunderground v.1.15,2013-03-30 08:30:00,
2013-03-30 04:36:00,35.2,30.0,30.18,WNW,294,1.0,10.0,81,0.00,,,0.00,Wunderground v.1.15,2013-03-30 08:36:00,
2013-03-30 04:42:00,35.1,29.9,30.18,WNW,294,1.0,10.0,81,0.00,,,0.00,Wunderground v.1.15,2013-03-30 08:42:00,
2013-03-30 04:48:00,35.0,29.8,30.18,WNW,294,0.0,10.0,81,0.00,,,0.00,Wunderground v.1.15,2013-03-30 08:48:00,
2013-03-30 04:53:00,34.9,29.7,30.18,WNW,294,0.0,10.0,81,0.00,,,0.00,Wunderground v.1.15,2013-03-30 08:53:00,
2013-03-30 04:59:00,34.7,29.5,30.18,WNW,294,0.0,10.0,81,0.00,,,0.00,Wunderground v.1.15,2013-03-30 08:59:00,
2013-03-30 05:04:00,34.4,29.5,30.18,WNW,294,0.0,10.0,82,0.00,,,0.00,Wunderground v.1.15,2013-03-30 09:04:00,
2013-03-30 05:10:00,34.3,29.4,30.17,WNW,294,0.0,10.0,82,0.00,,,0.00,Wunderground v.1.15,2013-03-30 09:10:00,
2013-03-30 05:16:00,34.0,29.1,30.17,WNW,294,0.0,10.0,82,0.00,,,0.00,Wunderground v.1.15,2013-03-30 09:16:00,
2013-03-30 05:22:00,33.8,29.2,30.17,WNW,294,0.0,10.0,83,0.00,,,0.00,Wunderground v.1.15,2013-03-30 09:22:00,
2013-03-30 05:27:00,33.6,29.0,30.17,WNW,294,0.0,10.0,83,0.00,,,0.00,Wunderground v.1.15,2013-03-30 09:27:00,
2013-03-30 05:32:00,33.3,28.7,30.17,WNW,294,0.0,10.0,83,0.00,,,0.00,Wunderground v.1.15,2013-03-30 09:32:00,
2013-03-30 05:34:00,33.1,28.5,30.17,WNW,294,0.0,10.0,83,0.00,,,0.00,Wunderground v.1.15,2013-03-30 09:34:00,
2013-03-30 05:40:00,32.7,28.1,30.17,WNW,294,0.0,10.0,83,0.00,,,0.00,Wunderground v.1.15,2013-03-30 09:40:00,
2013-03-30 05:46:00,32.2,27.9,30.17,WNW,294,0.0,10.0,84,0.00,,,0.00,Wunderground v.1.15,2013-03-30 09:46:00,
2013-03-30 05:52:00,31.7,27.7,30.17,WNW,294,0.0,10.0,85,0.00,,,0.00,Wunderground v.1.15,2013-03-30 09:52:00,
2013-03-30 05:58:00,31.3,27.6,30.18,WNW,294,0.0,10.0,86,0.00,,,0.00,Wunderground v.1.15,2013-03-30 09:58:00,
2013-03-30 06:04:00,31.0,27.3,30.18,WNW,294,0.0,10.0,86,0.00,,,0.00,Wunderground v.1.15,2013-03-30 10:04:00,
2013-03-30 06:09:00,30.8,27.4,30.18,WNW,294,0.0,10.0,87,0.00,,,0.00,Wunderground v.1.15,2013-03-30 10:09:00,
2013-03-30 06:15:00,30.2,26.5,30.18,WNW,294,0.0,10.0,86,0.00,,,0.00,Wunderground v.1.15,2013-03-30 10:15:00,
2013-03-30 06:21:00,29.7,26.3,30.18,WNW,294,0.0,10.0,87,0.00,,,0.00,Wunderground v.1.15,2013-03-30 10:21:00,
2013-03-30 06:27:00,29.4,26.3,30.19,WNW,294,0.0,10.0,88,0.00,,,0.00,Wunderground v.1.15,2013-03-30 10:27:00,
2013-03-30 06:33:00,29.0,25.9,30.19,WNW,294,0.0,10.0,88,0.00,,,0.00,Wunderground v.1.15,2013-03-30 10:33:00,
2013-03-30 06:38:00,28.9,26.1,30.19,WNW,294,0.0,10.0,89,0.00,,,0.00,Wunderground v.1.15,2013-03-30 10:38:00,
2013-03-30 06:43:00,28.8,26.0,30.19,WNW,294,0.0,10.0,89,0.00,,,0.00,Wunderground v.1.15,2013-03-30 10:43:00,
2013-03-30 06:49:00,28.8,26.2,30.19,WNW,294,0.0,10.0,90,0.00,,,0.00,Wunderground v.1.15,2013-03-30 10:49:00,
2013-03-30 06:55:00,28.9,26.3,30.19,WNW,294,0.0,10.0,90,0.00,,,0.00,Wunderground v.1.15,2013-03-30 10:55:00,
2013-03-30 07:00:00,28.9,26.3,30.20,WNW,294,0.0,10.0,90,0.00,,,0.00,Wunderground v.1.15,2013-03-30 11:00:00,
2013-03-30 07:06:00,29.2,26.9,30.20,WNW,294,0.0,10.0,91,0.00,,,0.00,Wunderground v.1.15,2013-03-30 11:06:00,
2013-03-30 07:11:00,29.4,27.1,30.20,WNW,294,0.0,10.0,91,0.00,,,0.00,Wunderground v.1.15,2013-03-30 11:11:00,
2013-03-30 07:17:00,29.7,27.4,30.20,WNW,294,0.0,10.0,91,0.00,,,0.00,Wunderground v.1.15,2013-03-30 11:17:00,
2013-03-30 07:22:00,29.9,27.3,30.20,WNW,294,0.0,10.0,90,0.00,,,0.00,Wunderground v.1.15,2013-03-30 11:22:00,
2013-03-30 07:28:00,30.1,27.5,30.20,WNW,294,0.0,10.0,90,0.00,,,0.00,Wunderground v.1.15,2013-03-30 11:28:00,
2013-03-30 07:34:00,30.5,27.9,30.21,WNW,294,0.0,10.0,90,0.00,,,0.00,Wunderground v.1.15,2013-03-30 11:34:00,
2013-03-30 07:40:00,31.1,28.5,30.21,WNW,294,1.0,10.0,90,0.00,,,0.00,Wunderground v.1.15,2013-03-30 11:40:00,
2013-03-30 07:45:00,31.8,28.9,30.21,West,278,2.0,10.0,89,0.00,,,0.00,Wunderground v.1.15,2013-03-30 11:45:00,
2013-03-30 07:51:00,32.7,29.5,30.21,West,278,2.0,10.0,88,0.00,,,0.00,Wunderground v.1.15,2013-03-30 11:51:00,
2013-03-30 07:56:00,33.2,29.5,30.21,WNW,298,2.0,10.0,86,0.00,,,0.00,Wunderground v.1.15,2013-03-30 11:56:00,
2013-03-30 08:01:00,33.7,29.7,30.21,West,265,2.0,10.0,85,0.00,,,0.00,Wunderground v.1.15,2013-03-30 12:01:00,
2013-03-30 08:07:00,34.2,29.9,30.21,West,265,2.0,10.0,84,0.00,,,0.00,Wunderground v.1.15,2013-03-30 12:07:00,
2013-03-30 08:13:00,34.6,30.0,30.21,West,265,2.0,10.0,83,0.00,,,0.00,Wunderground v.1.15,2013-03-30 12:13:00,
2013-03-30 08:19:00,35.0,30.1,30.21,West,265,2.0,10.0,82,0.00,,,0.00,Wunderground v.1.15,2013-03-30 12:19:00,
2013-03-30 08:24:00,35.3,30.1,30.21,WNW,301,3.0,10.0,81,0.00,,,0.00,Wunderground v.1.15,2013-03-30 12:24:00,
2013-03-30 08:30:00,35.8,30.5,30.21,North,360,2.0,10.0,81,0.00,,,0.00,Wunderground v.1.15,2013-03-30 12:30:00,
2013-03-30 08:36:00,36.6,30.4,30.21,NW,319,5.0,11.0,78,0.00,,,0.00,Wunderground v.1.15,2013-03-30 12:36:00,
2013-03-30 08:41:00,37.2,30.3,30.21,NNW,340,5.0,10.0,76,0.00,,,0.00,Wunderground v.1.15,2013-03-30 12:41:00,
2013-03-30 08:46:00,37.5,30.6,30.21,WNW,300,4.0,10.0,76,0.00,,,0.00,Wunderground v.1.15,2013-03-30 12:46:00,
2013-03-30 08:52:00,37.8,30.3,30.21,North,360,5.0,10.0,74,0.00,,,0.00,Wunderground v.1.15,2013-03-30 12:52:00,
2013-03-30 08:58:00,37.9,30.4,30.21,North,350,6.0,10.0,74,0.00,,,0.00,Wunderground v.1.15,2013-03-30 12:58:00,
2013-03-30 09:03:00,38.0,30.1,30.21,NNW,339,6.0,10.0,73,0.00,,,0.00,Wunderground v.1.15,2013-03-30 13:03:00,
2013-03-30 09:09:00,38.4,30.2,30.21,North,360,5.0,10.0,72,0.00,,,0.00,Wunderground v.1.15,2013-03-30 13:09:00,
2013-03-30 09:15:00,38.6,30.0,30.21,North,11,6.0,10.0,71,0.00,,,0.00,Wunderground v.1.15,2013-03-30 13:15:00,
2013-03-30 09:21:00,38.9,30.3,30.21,WNW,290,6.0,12.0,71,0.00,,,0.00,Wunderground v.1.15,2013-03-30 13:21:00,
2013-03-30 09:26:00,39.2,30.6,30.21,NNW,340,5.0,12.0,71,0.00,,,0.00,Wunderground v.1.15,2013-03-30 13:26:00,
2013-03-30 09:32:00,39.5,30.2,30.21,NNE,13,7.0,10.0,69,0.00,,,0.00,Wunderground v.1.15,2013-03-30 13:32:00,
2013-03-30 09:38:00,39.6,30.3,30.21,WNW,300,8.0,10.0,69,0.00,,,0.00,Wunderground v.1.15,2013-03-30 13:38:00,
2013-03-30 09:43:00,40.0,30.6,30.21,North,5,8.0,10.0,69,0.00,,,0.00,Wunderground v.1.15,2013-03-30 13:43:00,
2013-03-30 09:48:00,40.2,30.5,30.21,NW,316,8.0,10.0,68,0.00,,,0.00,Wunderground v.1.15,2013-03-30 13:48:00,
2013-03-30 09:54:00,40.6,30.9,30.21,North,5,7.0,10.0,68,0.00,,,0.00,Wunderground v.1.15,2013-03-30 13:54:00,
2013-03-30 10:00:00,41.1,31.0,30.20,NNW,346,6.0,10.0,67,0.00,,,0.00,Wunderground v.1.15,2013-03-30 14:00:00,
2013-03-30 10:05:00,41.3,31.2,30.21,WNW,284,7.0,12.0,67,0.00,,,0.00,Wunderground v.1.15,2013-03-30 14:05:00,
2013-03-30 10:10:00,41.7,30.8,30.21,North,349,7.0,10.0,65,0.00,,,0.00,Wunderground v.1.15,2013-03-30 14:10:00,
2013-03-30 10:15:00,42.0,31.5,30.20,NNW,341,6.0,10.0,66,0.00,,,0.00,Wunderground v.1.15,2013-03-30 14:15:00,
2013-03-30 10:20:00,42.5,31.2,30.21,NNW,344,6.0,6.0,64,0.00,,,0.00,Wunderground v.1.15,2013-03-30 14:20:00,
2013-03-30 10:26:00,42.4,31.1,30.20,NW,316,7.0,11.0,64,0.00,,,0.00,Wunderground v.1.15,2013-03-30 14:26:00,
2013-03-30 10:32:00,42.8,30.7,30.20,NNW,343,7.0,11.0,62,0.00,,,0.00,Wunderground v.1.15,2013-03-30 14:32:00,
2013-03-30 10:37:00,43.3,31.1,30.20,NW,323,6.0,11.0,62,0.00,,,0.00,Wunderground v.1.15,2013-03-30 14:37:00,
2013-03-30 10:43:00,43.8,30.4,30.20,North,355,7.0,10.0,59,0.00,,,0.00,Wunderground v.1.15,2013-03-30 14:43:00,
2013-03-30 10:49:00,44.3,30.9,30.20,WNW,301,6.0,10.0,59,0.00,,,0.00,Wunderground v.1.15,2013-03-30 14:49:00,
2013-03-30 10:55:00,44.9,30.6,30.20,NW,304,6.0,10.0,57,0.00,,,0.00,Wunderground v.1.15,2013-03-30 14:55:00,
2013-03-30 11:01:00,45.4,31.5,30.20,NNW,337,5.0,10.0,58,0.00,,,0.00,Wunderground v.1.15,2013-03-30 15:01:00,
2013-03-30 11:06:00,45.9,31.1,30.20,NW,316,5.0,10.0,56,0.00,,,0.00,Wunderground v.1.15,2013-03-30 15:06:00,
2013-03-30 11:11:00,46.0,31.2,30.20,NNW,329,5.0,10.0,56,0.00,,,0.00,Wunderground v.1.15,2013-03-30 15:11:00,
2013-03-30 11:17:00,46.3,31.0,30.20,North,360,5.0,10.0,55,0.00,,,0.00,Wunderground v.1.15,2013-03-30 15:17:00,
2013-03-30 11:23:00,46.4,30.2,30.20,NNW,344,6.0,11.0,53,0.00,,,0.00,Wunderground v.1.15,2013-03-30 15:23:00,
2013-03-30 11:29:00,46.6,29.4,30.19,NNE,15,6.0,11.0,51,0.00,,,0.00,Wunderground v.1.15,2013-03-30 15:29:00,
2013-03-30 11:34:00,46.4,28.8,30.20,North,355,8.0,11.0,50,0.00,,,0.00,Wunderground v.1.15,2013-03-30 15:34:00,
2013-03-30 11:40:00,46.7,30.0,30.20,NNW,331,7.0,10.0,52,0.00,,,0.00,Wunderground v.1.15,2013-03-30 15:40:00,
2013-03-30 11:45:00,47.0,29.3,30.19,West,270,6.0,12.0,50,0.00,,,0.00,Wunderground v.1.15,2013-03-30 15:45:00,
2013-03-30 11:51:00,47.2,29.5,30.20,North,5,7.0,10.0,50,0.00,,,0.00,Wunderground v.1.15,2013-03-30 15:51:00,
2013-03-30 11:56:00,47.6,28.3,30.19,NNW,335,6.0,11.0,47,0.00,,,0.00,Wunderground v.1.15,2013-03-30 15:56:00,
2013-03-30 12:02:00,47.8,28.5,30.19,West,275,7.0,13.0,47,0.00,,,0.00,Wunderground v.1.15,2013-03-30 16:02:00,
2013-03-30 12:08:00,48.0,28.2,30.19,WNW,282,7.0,14.0,46,0.00,,,0.00,Wunderground v.1.15,2013-03-30 16:08:00,
2013-03-30 12:13:00,48.1,28.3,30.19,NNE,15,7.0,11.0,46,0.00,,,0.00,Wunderground v.1.15,2013-03-30 16:13:00,
2013-03-30 12:18:00,47.9,28.1,30.18,NNW,338,9.0,12.0,46,0.00,,,0.00,Wunderground v.1.15,2013-03-30 16:18:00,
2013-03-30 12:24:00,47.4,27.1,30.18,NE,34,10.0,14.0,45,0.00,,,0.00,Wunderground v.1.15,2013-03-30 16:24:00,
2013-03-30 12:29:00,47.9,27.6,30.18,NE,41,8.0,14.0,45,0.00,,,0.00,Wunderground v.1.15,2013-03-30 16:29:00,
2013-03-30 12:34:00,48.6,27.6,30.18,NNW,346,7.0,10.0,44,0.00,,,0.00,Wunderground v.1.15,2013-03-30 16:34:00,
2013-03-30 12:40:00,48.9,26.8,30.18,NW,312,8.0,8.0,42,0.00,,,0.00,Wunderground v.1.15,2013-03-30 16:40:00,
2013-03-30 12:45:00,48.6,25.9,30.18,North,360,10.0,14.0,41,0.00,,,0.00,Wunderground v.1.15,2013-03-30 16:45:00,
2013-03-30 12:51:00,48.6,26.5,30.18,NNW,338,9.0,10.0,42,0.00,,,0.00,Wunderground v.1.15,2013-03-30 16:51:00,
2013-03-30 12:56:00,48.8,25.5,30.18,NNW,342,8.0,14.0,40,0.00,,,0.00,Wunderground v.1.15,2013-03-30 16:56:00,
2013-03-30 13:01:00,49.0,25.7,30.18,NNE,26,9.0,10.0,40,0.00,,,0.00,Wunderground v.1.15,2013-03-30 17:01:00,
2013-03-30 13:07:00,48.8,23.6,30.18,NW,307,9.0,15.0,37,0.00,,,0.00,Wunderground v.1.15,2013-03-30 17:07:00,
2013-03-30 13:13:00,48.8,24.3,30.18,North,355,10.0,13.0,38,0.00,,,0.00,Wunderground v.1.15,2013-03-30 17:13:00,
2013-03-30 13:19:00,48.5,25.8,30.18,NW,325,11.0,13.0,41,0.00,,,0.00,Wunderground v.1.15,2013-03-30 17:19:00,
2013-03-30 13:25:00,49.1,25.8,30.17,North,355,8.0,11.0,40,0.00,,,0.00,Wunderground v.1.15,2013-03-30 17:25:00,
2013-03-30 13:30:00,49.3,24.1,30.17,NNW,329,9.0,13.0,37,0.00,,,0.00,Wunderground v.1.15,2013-03-30 17:30:00,
2013-03-30 13:35:00,49.1,24.6,30.17,NNW,348,11.0,13.0,38,0.00,,,0.00,Wunderground v.1.15,2013-03-30 17:35:00,
2013-03-30 13:41:00,49.0,25.1,30.17,NNW,348,10.0,10.0,39,0.00,,,0.00,Wunderground v.1.15,2013-03-30 17:41:00,
2013-03-30 13:47:00,48.9,25.0,30.16,North,11,10.0,21.0,39,0.00,,,0.00,Wunderground v.1.15,2013-03-30 17:47:00,
2013-03-30 13:53:00,49.3,24.7,30.16,NW,315,10.0,11.0,38,0.00,,,0.00,Wunderground v.1.15,2013-03-30 17:53:00,
2013-03-30 13:58:00,49.1,24.6,30.16,WNW,292,9.0,14.0,38,0.00,,,0.00,Wunderground v.1.15,2013-03-30 17:58:00,
2013-03-30 14:04:00,49.4,24.2,30.16,NNW,329,9.0,10.0,37,0.00,,,0.00,Wunderground v.1.15,2013-03-30 18:04:00,
2013-03-30 14:09:00,49.4,24.2,30.16,NNE,30,9.0,13.0,37,0.00,,,0.00,Wunderground v.1.15,2013-03-30 18:09:00,
2013-03-30 14:14:00,49.2,24.6,30.16,North,10,9.0,14.0,38,0.00,,,0.00,Wunderground v.1.15,2013-03-30 18:14:00,
2013-03-30 14:19:00,49.5,24.3,30.15,WNW,297,8.0,14.0,37,0.00,,,0.00,Wunderground v.1.15,2013-03-30 18:19:00,
2013-03-30 14:24:00,49.7,24.5,30.15,NW,321,9.0,14.0,37,0.00,,,0.00,Wunderground v.1.15,2013-03-30 18:24:00,
2013-03-30 14:29:00,49.6,23.7,30.16,NW,307,11.0,18.0,36,0.00,,,0.00,Wunderground v.1.15,2013-03-30 18:29:00,
2013-03-30 14:35:00,49.6,25.0,30.15,North,350,10.0,12.0,38,0.00,,,0.00,Wunderground v.1.15,2013-03-30 18:35:00,
2013-03-30 14:40:00,49.4,25.4,30.15,NNE,25,10.0,18.0,39,0.00,,,0.00,Wunderground v.1.15,2013-03-30 18:40:00,
2013-03-30 14:45:00,49.4,26.1,30.16,NNE,30,10.0,18.0,40,0.00,,,0.00,Wunderground v.1.15,2013-03-30 18:45:00,
2013-03-30 14:52:00,49.7,24.5,30.15,NW,319,9.0,19.0,37,0.00,,,0.00,Wunderground v.1.15,2013-03-30 18:52:00,
2013-03-30 14:58:00,50.0,25.4,30.15,North,5,8.0,19.0,38,0.00,,,0.00,Wunderground v.1.15,2013-03-30 18:58:00,
2013-03-30 15:03:00,50.0,25.4,30.15,NNW,327,9.0,10.0,38,0.00,,,0.00,Wunderground v.1.15,2013-03-30 19:03:00,
2013-03-30 15:08:00,49.9,24.6,30.15,North,5,9.0,16.0,37,0.00,,,0.00,Wunderground v.1.15,2013-03-30 19:08:00,
2013-03-30 15:14:00,49.6,24.4,30.15,NNE,17,10.0,11.0,37,0.00,,,0.00,Wunderground v.1.15,2013-03-30 19:14:00,
2013-03-30 15:20:00,49.7,25.1,30.15,NNE,22,8.0,14.0,38,0.00,,,0.00,Wunderground v.1.15,2013-03-30 19:20:00,
2013-03-30 15:25:00,49.6,25.0,30.14,NNW,331,7.0,14.0,38,0.00,,,0.00,Wunderground v.1.15,2013-03-30 19:25:00,
2013-03-30 15:30:00,49.9,24.0,30.14,NNW,329,9.0,11.0,36,0.00,,,0.00,Wunderground v.1.15,2013-03-30 19:30:00,
2013-03-30 15:36:00,49.7,23.8,30.14,WNW,301,10.0,20.0,36,0.00,,,0.00,Wunderground v.1.15,2013-03-30 19:36:00,
2013-03-30 15:41:00,49.8,25.2,30.14,WNW,293,9.0,10.0,38,0.00,,,0.00,Wunderground v.1.15,2013-03-30 19:41:00,
2013-03-30 15:46:00,50.1,24.8,30.15,North,355,8.0,10.0,37,0.00,,,0.00,Wunderground v.1.15,2013-03-30 19:46:00,
2013-03-30 15:52:00,50.1,25.5,30.15,NNW,346,8.0,14.0,38,0.00,,,0.00,Wunderground v.1.15,2013-03-30 19:52:00,
2013-03-30 15:58:00,50.0,24.1,30.14,NW,313,9.0,14.0,36,0.00,,,0.00,Wunderground v.1.15,2013-03-30 19:58:00,
2013-03-30 16:04:00,50.0,24.1,30.14,NNW,334,9.0,11.0,36,0.00,,,0.00,Wunderground v.1.15,2013-03-30 20:04:00,
2013-03-30 16:09:00,50.2,24.9,30.14,NNE,17,8.0,13.0,37,0.00,,,0.00,Wunderground v.1.15,2013-03-30 20:09:00,
2013-03-30 16:15:00,50.1,24.2,30.14,NNW,348,7.0,10.0,36,0.00,,,0.00,Wunderground v.1.15,2013-03-30 20:15:00,
2013-03-30 16:20:00,49.8,24.5,30.14,NNW,344,8.0,8.0,37,0.00,,,0.00,Wunderground v.1.15,2013-03-30 20:20:00,
2013-03-30 16:27:00,49.7,24.5,30.14,NW,315,7.0,10.0,37,0.00,,,0.00,Wunderground v.1.15,2013-03-30 20:27:00,
2013-03-30 16:33:00,50.2,24.9,30.14,NW,320,7.0,10.0,37,0.00,,,0.00,Wunderground v.1.15,2013-03-30 20:33:00,
2013-03-30 16:38:00,50.2,24.2,30.14,NNW,336,8.0,10.0,36,0.00,,,0.00,Wunderground v.1.15,2013-03-30 20:38:00,
2013-03-30 16:43:00,50.0,24.1,30.14,NNW,340,9.0,11.0,36,0.00,,,0.00,Wunderground v.1.15,2013-03-30 20:43:00,
2013-03-30 16:48:00,50.0,23.4,30.14,NNW,333,8.0,11.0,35,0.00,,,0.00,Wunderground v.1.15,2013-03-30 20:48:00,
2013-03-30 16:54:00,49.8,23.2,30.14,NNE,13,8.0,12.0,35,0.00,,,0.00,Wunderground v.1.15,2013-03-30 20:54:00,
2013-03-30 16:59:00,50.0,23.4,30.14,North,355,7.0,12.0,35,0.00,,,0.00,Wunderground v.1.15,2013-03-30 20:59:00,
2013-03-30 17:05:00,50.0,23.4,30.14,North,5,8.0,11.0,35,0.00,,,0.00,Wunderground v.1.15,2013-03-30 21:05:00,
2013-03-30 17:11:00,49.7,23.1,30.14,NW,324,8.0,10.0,35,0.00,,,0.00,Wunderground v.1.15,2013-03-30 21:11:00,
2013-03-30 17:17:00,49.5,22.3,30.14,NW,326,8.0,14.0,34,0.00,,,0.00,Wunderground v.1.15,2013-03-30 21:17:00,
2013-03-30 17:22:00,49.3,22.8,30.14,NNW,341,8.0,10.0,35,0.00,,,0.00,Wunderground v.1.15,2013-03-30 21:22:00,
2013-03-30 17:27:00,49.6,23.7,30.14,NW,325,7.0,11.0,36,0.00,,,0.00,Wunderground v.1.15,2013-03-30 21:27:00,
2013-03-30 17:33:00,49.5,22.3,30.14,NW,304,8.0,10.0,34,0.00,,,0.00,Wunderground v.1.15,2013-03-30 21:33:00,
2013-03-30 17:39:00,49.7,23.1,30.14,NW,306,6.0,10.0,35,0.00,,,0.00,Wunderground v.1.15,2013-03-30 21:39:00,
2013-03-30 17:44:00,49.6,23.0,30.14,NNW,336,6.0,10.0,35,0.00,,,0.00,Wunderground v.1.15,2013-03-30 21:44:00,
2013-03-30 17:49:00,49.7,23.8,30.15,North,350,5.0,10.0,36,0.00,,,0.00,Wunderground v.1.15,2013-03-30 21:49:00,
2013-03-30 17:55:00,49.5,22.9,30.15,NNW,333,5.0,10.0,35,0.00,,,0.00,Wunderground v.1.15,2013-03-30 21:55:00,
2013-03-30 18:00:00,49.3,22.1,30.15,North,355,7.0,10.0,34,0.00,,,0.00,Wunderground v.1.15,2013-03-30 22:00:00,
2013-03-30 18:05:00,48.8,23.0,30.15,North,360,7.0,11.0,36,0.00,,,0.00,Wunderground v.1.15,2013-03-30 22:05:00,
2013-03-30 18:11:00,48.8,22.3,30.15,NW,320,6.0,10.0,35,0.00,,,0.00,Wunderground v.1.15,2013-03-30 22:11:00,
2013-03-30 18:17:00,48.7,22.9,30.15,North,351,7.0,11.0,36,0.00,,,0.00,Wunderground v.1.15,2013-03-30 22:17:00,
2013-03-30 18:23:00,48.5,23.4,30.15,NNW,339,7.0,10.0,37,0.00,,,0.00,Wunderground v.1.15,2013-03-30 22:23:00,
2013-03-30 18:29:00,48.3,23.2,30.15,North,9,6.0,11.0,37,0.00,,,0.00,Wunderground v.1.15,2013-03-30 22:29:00,
2013-03-30 18:35:00,48.0,22.9,30.15,NNW,342,7.0,12.0,37,0.00,,,0.00,Wunderground v.1.15,2013-03-30 22:35:00,
2013-03-30 18:41:00,47.8,23.4,30.15,North,349,6.0,10.0,38,0.00,,,0.00,Wunderground v.1.15,2013-03-30 22:41:00,
2013-03-30 18:46:00,47.6,24.4,30.16,NW,319,5.0,10.0,40,0.00,,,0.00,Wunderground v.1.15,2013-03-30 22:46:00,
2013-03-30 18:52:00,47.3,24.2,30.16,NNW,333,5.0,10.0,40,0.00,,,0.00,Wunderground v.1.15,2013-03-30 22:52:00,
2013-03-30 18:58:00,47.0,24.5,30.16,NW,322,5.0,10.0,41,0.00,,,0.00,Wunderground v.1.15,2013-03-30 22:58:00,
2013-03-30 19:04:00,46.8,24.3,30.16,NNE,17,4.0,10.0,41,0.00,,,0.00,Wunderground v.1.15,2013-03-30 23:04:00,
2013-03-30 19:09:00,46.4,24.5,30.16,NNW,327,3.0,10.0,42,0.00,,,0.00,Wunderground v.1.15,2013-03-30 23:09:00,
2013-03-30 19:14:00,46.0,24.7,30.16,NW,326,3.0,10.0,43,0.00,,,0.00,Wunderground v.1.15,2013-03-30 23:14:00,
2013-03-30 19:19:00,45.7,24.5,30.16,NNW,328,2.0,10.0,43,0.00,,,0.00,Wunderground v.1.15,2013-03-30 23:19:00,
2013-03-30 19:25:00,45.4,24.7,30.16,NNW,348,1.0,10.0,44,0.00,,,0.00,Wunderground v.1.15,2013-03-30 23:25:00,
2013-03-30 19:31:00,45.2,24.6,30.16,North,349,1.0,10.0,44,0.00,,,0.00,Wunderground v.1.15,2013-03-30 23:31:00,
2013-03-30 19:37:00,44.9,24.8,30.16,NW,319,1.0,10.0,45,0.00,,,0.00,Wunderground v.1.15,2013-03-30 23:37:00,
2013-03-30 19:43:00,44.6,25.1,30.16,NW,317,1.0,10.0,46,0.00,,,0.00,Wunderground v.1.15,2013-03-30 23:43:00,
2013-03-30 19:49:00,44.3,25.3,30.16,NW,317,0.0,10.0,47,0.00,,,0.00,Wunderground v.1.15,2013-03-30 23:49:00,
2013-03-30 19:55:00,43.9,25.5,30.16,NW,317,0.0,10.0,48,0.00,,,0.00,Wunderground v.1.15,2013-03-30 23:55:00,
2013-03-30 20:00:00,43.6,25.2,30.17,NW,317,0.0,10.0,48,0.00,,,0.00,Wunderground v.1.15,2013-03-31 00:00:00,
2013-03-30 20:06:00,43.5,25.1,30.17,NW,317,0.0,10.0,48,0.00,,,0.00,Wunderground v.1.15,2013-03-31 00:06:00,
2013-03-30 20:12:00,43.1,25.7,30.17,NW,317,0.0,10.0,50,0.00,,,0.00,Wunderground v.1.15,2013-03-31 00:12:00,
2013-03-30 20:18:00,42.5,26.1,30.17,NW,317,0.0,10.0,52,0.00,,,0.00,Wunderground v.1.15,2013-03-31 00:18:00,
2013-03-30 20:23:00,42.0,25.6,30.17,NW,317,0.0,10.0,52,0.00,,,0.00,Wunderground v.1.15,2013-03-31 00:23:00,
2013-03-30 20:29:00,41.4,26.4,30.17,NW,317,0.0,10.0,55,0.00,,,0.00,Wunderground v.1.15,2013-03-31 00:29:00,
2013-03-30 20:34:00,40.8,26.3,30.17,NW,317,0.0,10.0,56,0.00,,,0.00,Wunderground v.1.15,2013-03-31 00:34:00,
2013-03-30 20:39:00,40.2,26.2,30.17,NW,317,0.0,10.0,57,0.00,,,0.00,Wunderground v.1.15,2013-03-31 00:39:00,
2013-03-30 20:44:00,39.7,25.7,30.17,NW,317,0.0,10.0,57,0.00,,,0.00,Wunderground v.1.15,2013-03-31 00:44:00,
2013-03-30 20:50:00,39.1,26.0,30.17,NW,317,0.0,10.0,59,0.00,,,0.00,Wunderground v.1.15,2013-03-31 00:50:00,
2013-03-30 20:55:00,38.6,26.7,30.17,NW,317,0.0,10.0,62,0.00,,,0.00,Wunderground v.1.15,2013-03-31 00:55:00,
2013-03-30 21:00:00,38.1,27.0,30.17,NW,317,0.0,10.0,64,0.00,,,0.00,Wunderground v.1.15,2013-03-31 01:00:00,
2013-03-30 21:05:00,37.5,26.4,30.18,NW,317,0.0,10.0,64,0.00,,,0.00,Wunderground v.1.15,2013-03-31 01:05:00,
2013-03-30 21:12:00,36.9,25.9,30.18,NW,317,0.0,10.0,64,0.00,,,0.00,Wunderground v.1.15,2013-03-31 01:12:00,
2013-03-30 21:18:00,36.6,26.3,30.18,NW,317,0.0,10.0,66,0.00,,,0.00,Wunderground v.1.15,2013-03-31 01:18:00,
2013-03-30 21:24:00,36.1,26.2,30.17,NW,317,0.0,10.0,67,0.00,,,0.00,Wunderground v.1.15,2013-03-31 01:24:00,
2013-03-30 21:29:00,35.7,26.5,30.17,NW,317,0.0,10.0,69,0.00,,,0.00,Wunderground v.1.15,2013-03-31 01:29:00,
2013-03-30 21:35:00,35.4,26.6,30.17,NW,317,0.0,10.0,70,0.00,,,0.00,Wunderground v.1.15,2013-03-31 01:35:00,
2013-03-30 21:41:00,35.0,26.9,30.17,NW,317,0.0,10.0,72,0.00,,,0.00,Wunderground v.1.15,2013-03-31 01:41:00,
2013-03-30 21:47:00,34.6,26.2,30.17,NW,317,0.0,10.0,71,0.00,,,0.00,Wunderground v.1.15,2013-03-31 01:47:00,
2013-03-30 21:53:00,34.2,25.8,30.17,NW,317,0.0,10.0,71,0.00,,,0.00,Wunderground v.1.15,2013-03-31 01:53:00,
2013-03-30 21:58:00,33.8,25.4,30.17,NW,317,0.0,10.0,71,0.00,,,0.00,Wunderground v.1.15,2013-03-31 01:58:00,
2013-03-30 22:04:00,33.4,25.3,30.17,NW,317,0.0,10.0,72,0.00,,,0.00,Wunderground v.1.15,2013-03-31 02:04:00,
2013-03-30 22:10:00,33.0,25.3,30.18,NW,317,0.0,10.0,73,0.00,,,0.00,Wunderground v.1.15,2013-03-31 02:10:00,
2013-03-30 22:15:00,32.8,25.1,30.18,NW,317,0.0,10.0,73,0.00,,,0.00,Wunderground v.1.15,2013-03-31 02:15:00,
2013-03-30 22:20:00,32.6,25.2,30.18,NW,317,0.0,10.0,74,0.00,,,0.00,Wunderground v.1.15,2013-03-31 02:20:00,
2013-03-30 22:25:00,32.4,25.0,30.18,NW,317,0.0,10.0,74,0.00,,,0.00,Wunderground v.1.15,2013-03-31 02:25:00,
2013-03-30 22:30:00,32.1,25.1,30.18,NW,317,0.0,10.0,75,0.00,,,0.00,Wunderground v.1.15,2013-03-31 02:30:00,
2013-03-30 22:36:00,31.7,25.0,30.18,NW,317,0.0,10.0,76,0.00,,,0.00,Wunderground v.1.15,2013-03-31 02:36:00,
2013-03-30 22:41:00,31.3,24.9,30.18,NW,317,0.0,10.0,77,0.00,,,0.00,Wunderground v.1.15,2013-03-31 02:41:00,
2013-03-30 22:47:00,31.1,25.0,30.18,NW,317,0.0,10.0,78,0.00,,,0.00,Wunderground v.1.15,2013-03-31 02:47:00,
2013-03-30 22:52:00,31.0,24.9,30.18,NW,317,0.0,10.0,78,0.00,,,0.00,Wunderground v.1.15,2013-03-31 02:52:00,
2013-03-30 22:58:00,30.8,24.7,30.18,NW,317,0.0,10.0,78,0.00,,,0.00,Wunderground v.1.15,2013-03-31 02:58:00,
2013-03-30 23:04:00,30.6,24.6,30.18,NW,317,0.0,10.0,78,0.00,,,0.00,Wunderground v.1.15,2013-03-31 03:04:00,
2013-03-30 23:10:00,30.4,24.4,30.19,NW,317,0.0,10.0,78,0.00,,,0.00,Wunderground v.1.15,2013-03-31 03:10:00,
2013-03-30 23:15:00,30.3,24.3,30.19,NW,317,0.0,10.0,78,0.00,,,0.00,Wunderground v.1.15,2013-03-31 03:15:00,
2013-03-30 23:20:00,30.3,24.3,30.18,NW,317,0.0,10.0,78,0.00,,,0.00,Wunderground v.1.15,2013-03-31 03:20:00,
2013-03-30 23:27:00,30.3,24.3,30.19,NW,317,0.0,10.0,78,0.00,,,0.00,Wunderground v.1.15,2013-03-31 03:27:00,
2013-03-30 23:33:00,30.2,24.2,30.18,NW,317,0.0,10.0,78,0.00,,,0.00,Wunderground v.1.15,2013-03-31 03:33:00,
2013-03-30 23:39:00,29.8,24.4,30.19,NW,317,0.0,10.0,80,0.00,,,0.00,Wunderground v.1.15,2013-03-31 03:39:00,
2013-03-30 23:45:00,29.5,24.4,30.18,NW,317,0.0,10.0,81,0.00,,,0.00,Wunderground v.1.15,2013-03-31 03:45:00,
2013-03-30 23:51:00,29.3,24.5,30.18,NW,317,0.0,10.0,82,0.00,,,0.00,Wunderground v.1.15,2013-03-31 03:51:00,
2013-03-30 23:56:00,29.2,24.4,30.18,NW,317,0.0,10.0,82,0.00,,,0.00,Wunderground v.1.15,2013-03-31 03:56:00,